createdAt,value
2023-04-27T00:03:31.578Z,9.2
2023-04-27T00:08:37.685Z,9.6
2023-04-27T00:13:43.775Z,8.9
2023-04-27T00:18:49.898Z,8.9
2023-04-27T00:23:55.990Z,8.6
2023-04-27T00:29:02.072Z,9.2
2023-04-27T00:34:08.214Z,8.9
2023-04-27T00:39:14.285Z,9.2
2023-04-27T00:44:20.385Z,9.9
2023-04-27T00:49:26.468Z,9.2
2023-04-27T00:54:32.627Z,8.9
2023-04-27T00:59:38.676Z,9.2
2023-04-27T01:04:43.786Z,9.2
2023-04-27T01:09:49.884Z,8.9
2023-04-27T01:14:56.020Z,9.2
2023-04-27T01:20:02.060Z,9.6
2023-04-27T01:25:08.160Z,9.2
2023-04-27T01:30:14.258Z,8.9
2023-04-27T01:35:20.361Z,8.9
2023-04-27T01:40:26.455Z,8.6
2023-04-27T01:45:32.556Z,8.6
2023-04-27T01:50:38.673Z,8.6
2023-04-27T01:55:44.756Z,8.9
2023-04-27T02:00:50.864Z,9.2
2023-04-27T02:05:56.985Z,8.6
2023-04-27T02:11:02.095Z,8.6
2023-04-27T02:16:08.171Z,8.9
2023-04-27T02:21:14.264Z,8.9
2023-04-27T02:26:20.367Z,9.2
2023-04-27T02:31:26.453Z,8.6
2023-04-27T02:36:32.560Z,8.6
2023-04-27T02:41:38.660Z,8.6
2023-04-27T02:46:44.756Z,8.6
2023-04-27T02:51:50.843Z,8.6
2023-04-27T02:56:56.948Z,8.6
2023-04-27T03:02:03.047Z,8.3
2023-04-27T03:07:09.133Z,8.3
2023-04-27T03:12:15.227Z,8.3
2023-04-27T03:17:20.342Z,8.6
2023-04-27T03:22:26.429Z,8.3
2023-04-27T03:27:32.526Z,8.6
2023-04-27T03:32:38.620Z,8.6
2023-04-27T03:37:44.707Z,8.3
2023-04-27T03:42:50.818Z,8.6
2023-04-27T03:47:56.902Z,8.9
2023-04-27T03:53:02.994Z,8.3
2023-04-27T03:58:09.078Z,8.3
2023-04-27T04:03:15.174Z,8.3
2023-04-27T04:08:21.281Z,8
2023-04-27T04:13:27.391Z,8.3
2023-04-27T04:18:33.489Z,8.3
2023-04-27T04:23:38.601Z,8.6
2023-04-27T04:28:44.706Z,8.6
2023-04-27T04:33:50.790Z,8.3
2023-04-27T04:38:56.956Z,8.3
2023-04-27T04:44:03.015Z,8.6
2023-04-27T04:49:09.089Z,8.3
2023-04-27T04:54:15.199Z,8.3
2023-04-27T04:59:21.283Z,8.9
2023-04-27T05:04:27.381Z,8
2023-04-27T05:09:33.485Z,8.6
2023-04-27T05:14:39.584Z,8.6
2023-04-27T05:19:45.673Z,8
2023-04-27T05:24:51.775Z,8
2023-04-27T05:29:56.913Z,8
2023-04-27T05:35:03.022Z,8
2023-04-27T05:40:09.173Z,8.3
2023-04-27T05:45:15.199Z,8
2023-04-27T05:50:21.302Z,8.3
2023-04-27T05:55:27.401Z,8
2023-04-27T06:00:33.535Z,8
2023-04-27T06:05:39.601Z,8
2023-04-27T06:10:45.698Z,8
2023-04-27T06:15:51.796Z,8
2023-04-27T06:20:57.894Z,8.6
2023-04-27T06:26:03.994Z,8.3
2023-04-27T06:31:10.090Z,8.3
2023-04-27T06:36:15.257Z,8.3
2023-04-27T06:41:21.307Z,8.3
2023-04-27T06:46:27.406Z,8
2023-04-27T06:51:33.488Z,8.3
2023-04-27T06:56:39.597Z,8.3
2023-04-27T07:01:45.706Z,8.9
2023-04-27T07:06:51.852Z,8.3
2023-04-27T07:11:57.915Z,8.6
2023-04-27T07:17:03.976Z,8
2023-04-27T07:22:10.121Z,8.3
2023-04-27T07:27:16.180Z,8.6
2023-04-27T07:32:22.331Z,8.3
2023-04-27T07:37:28.351Z,8.9
2023-04-27T07:42:33.481Z,8.3
2023-04-27T07:47:39.669Z,8.3
2023-04-27T07:52:45.892Z,8.3
2023-04-27T07:57:51.845Z,8
2023-04-27T08:02:58.020Z,8.6
2023-04-27T08:08:03.963Z,8.3
2023-04-27T08:13:10.074Z,8.3
2023-04-27T08:18:16.242Z,8.6
2023-04-27T08:23:22.248Z,8.3
2023-04-27T08:28:28.357Z,8.6
2023-04-27T08:33:34.460Z,8.6
2023-04-27T08:38:40.537Z,8.6
2023-04-27T08:43:46.688Z,8.3
2023-04-27T08:48:51.735Z,8.3
2023-04-27T08:53:57.860Z,8.6
2023-04-27T08:59:03.938Z,8.6
2023-04-27T09:04:10.034Z,8.6
2023-04-27T09:09:16.236Z,8.9
2023-04-27T09:14:22.238Z,8.3
2023-04-27T09:19:28.504Z,8.9
2023-04-27T09:24:34.523Z,9.2
2023-04-27T09:29:40.615Z,8.6
2023-04-27T09:34:46.707Z,9.2
2023-04-27T09:39:52.721Z,8.6
2023-04-27T09:44:58.796Z,8.9
2023-04-27T09:50:04.908Z,8.9
2023-04-27T09:55:10.011Z,8.9
2023-04-27T10:00:16.134Z,8.9
2023-04-27T10:05:22.258Z,8.6
2023-04-27T10:15:34.383Z,8.9
2023-04-27T10:20:40.677Z,8.9
2023-04-27T10:25:46.630Z,9.2
2023-04-27T10:30:52.806Z,9.2
2023-04-27T10:35:58.821Z,9.2
2023-04-27T10:41:04.867Z,9.2
2023-04-27T10:46:10.970Z,8.9
2023-04-27T10:51:17.150Z,8.9
2023-04-27T10:56:23.162Z,9.2
2023-04-27T11:01:28.273Z,9.6
2023-04-27T11:06:34.382Z,9.2
2023-04-27T11:11:40.499Z,9.6
2023-04-27T11:16:46.561Z,9.6
2023-04-27T11:21:52.671Z,9.6
2023-04-27T11:26:58.832Z,9.2
2023-04-27T11:32:04.840Z,8.9
2023-04-27T11:37:10.950Z,9.6
2023-04-27T11:42:17.140Z,9.6
2023-04-27T11:47:23.276Z,8.9
2023-04-27T11:52:29.241Z,10.2
2023-04-27T11:57:35.441Z,9.6
2023-04-27T12:02:41.504Z,9.6
2023-04-27T12:07:46.535Z,9.6
2023-04-27T12:12:52.765Z,9.2
2023-04-27T12:17:58.723Z,9.9
2023-04-27T12:23:04.846Z,9.6
2023-04-27T12:28:11.036Z,9.9
2023-04-27T12:33:17.023Z,9.6
2023-04-27T12:38:23.126Z,9.9
2023-04-27T12:43:29.215Z,9.9
2023-04-27T12:48:35.308Z,9.6
2023-04-27T12:53:41.406Z,9.9
2023-04-27T12:58:47.490Z,9.9
2023-04-27T13:03:53.577Z,9.9
2023-04-27T13:08:59.716Z,9.9
2023-04-27T13:14:04.875Z,10.2
2023-04-27T13:19:10.931Z,10.2
2023-04-27T13:24:17.098Z,10.2
2023-04-27T13:29:23.081Z,10.5
2023-04-27T13:34:29.200Z,10.2
2023-04-27T13:39:35.277Z,10.5
2023-04-27T13:44:41.366Z,10.5
2023-04-27T13:49:47.550Z,10.5
2023-04-27T13:54:53.562Z,10.5
2023-04-27T13:59:59.674Z,10.5
2023-04-27T14:05:05.833Z,10.9
2023-04-27T14:10:11.858Z,10.9
2023-04-27T14:15:18.121Z,11.2
2023-04-27T14:20:23.114Z,11.2
2023-04-27T14:25:29.209Z,11.2
2023-04-27T14:30:35.265Z,11.5
2023-04-27T14:35:41.348Z,11.2
2023-04-27T14:40:47.457Z,11.5
2023-04-27T14:45:53.550Z,11.5
2023-04-27T14:50:59.638Z,11.5
2023-04-27T14:56:05.742Z,11.2
2023-04-27T15:01:11.842Z,11.5
2023-04-27T15:06:17.952Z,11.5
2023-04-27T15:11:24.046Z,11.5
2023-04-27T15:16:30.107Z,11.5
2023-04-27T15:21:36.249Z,11.5
2023-04-27T15:26:41.333Z,11.5
2023-04-27T15:31:47.455Z,12.1
2023-04-27T15:36:53.512Z,11.5
2023-04-27T15:41:59.613Z,11.8
2023-04-27T15:47:05.731Z,11.8
2023-04-27T15:52:11.850Z,11.5
2023-04-27T15:57:17.901Z,11.8
2023-04-27T16:02:24.066Z,12.5
2023-04-27T16:07:30.083Z,11.8
2023-04-27T16:12:36.196Z,12.1
2023-04-27T16:17:42.356Z,11.5
2023-04-27T16:22:48.390Z,11.5
2023-04-27T16:27:54.471Z,11.8
2023-04-27T16:32:59.690Z,12.1
2023-04-27T16:43:11.768Z,11.8
2023-04-27T16:48:17.879Z,12.1
2023-04-27T16:53:24.004Z,11.5
2023-04-27T16:58:30.105Z,12.1
2023-04-27T17:03:35.176Z,11.8
2023-04-27T17:08:41.293Z,11.8
2023-04-27T17:13:47.375Z,12.5
2023-04-27T17:18:53.484Z,11.8
2023-04-27T17:23:59.622Z,12.1
2023-04-27T17:29:05.757Z,11.8
2023-04-27T17:34:11.801Z,11.5
2023-04-27T17:39:17.857Z,11.8
2023-04-27T17:44:23.949Z,11.5
2023-04-27T17:49:30.081Z,11.8
2023-04-27T17:54:36.163Z,12.1
2023-04-27T17:59:42.350Z,11.8
2023-04-27T18:04:48.330Z,11.8
2023-04-27T18:09:53.453Z,11.5
2023-04-27T18:14:59.551Z,11.8
2023-04-27T18:20:05.669Z,12.5
2023-04-27T18:25:11.759Z,11.5
2023-04-27T18:30:17.847Z,11.5
2023-04-27T18:35:23.978Z,11.8
2023-04-27T18:40:30.022Z,11.5
2023-04-27T18:45:36.117Z,11.5
2023-04-27T18:50:42.442Z,11.5
2023-04-27T18:55:48.468Z,11.5
2023-04-27T19:00:54.406Z,11.5
2023-04-27T19:06:00.607Z,11.5
2023-04-27T19:11:06.783Z,11.5
2023-04-27T19:16:11.741Z,11.2
2023-04-27T19:21:17.806Z,11.5
2023-04-27T19:26:23.926Z,11.2
2023-04-27T19:31:30.015Z,11.5
2023-04-27T19:36:36.115Z,11.2
2023-04-27T19:41:42.220Z,11.8
2023-04-27T19:46:48.300Z,11.5
2023-04-27T19:51:54.392Z,11.2
2023-04-27T19:57:00.504Z,11.5
2023-04-27T20:02:06.604Z,11.5
2023-04-27T20:07:12.710Z,11.2
2023-04-27T20:12:18.808Z,11.2
2023-04-27T20:17:24.919Z,10.9
2023-04-27T20:22:30.018Z,11.2
2023-04-27T20:27:36.113Z,11.2
2023-04-27T20:32:42.210Z,10.9
2023-04-27T20:37:48.304Z,11.2
2023-04-27T20:42:54.417Z,11.5
2023-04-27T20:48:00.501Z,10.9
2023-04-27T20:53:06.590Z,11.2
2023-04-27T20:58:12.690Z,10.9
2023-04-27T21:03:18.790Z,11.2
2023-04-27T21:08:24.892Z,10.9
2023-04-27T21:13:30.976Z,10.9
2023-04-27T21:18:37.083Z,10.9
2023-04-27T21:23:43.187Z,11.5
2023-04-27T21:28:48.293Z,10.9
2023-04-27T21:33:54.386Z,11.2
2023-04-27T21:39:00.493Z,11.2
2023-04-27T21:44:06.594Z,10.9
2023-04-27T21:49:12.687Z,10.5
2023-04-27T21:54:18.792Z,10.9
2023-04-27T21:59:24.895Z,10.9
2023-04-27T22:04:30.989Z,10.5
2023-04-27T22:09:37.076Z,10.2
2023-04-27T22:14:43.183Z,10.5
2023-04-27T22:19:49.274Z,10.5
2023-04-27T22:24:55.368Z,10.5
2023-04-27T22:30:01.470Z,10.5
2023-04-27T22:35:06.585Z,10.5
2023-04-27T22:40:12.670Z,10.9
2023-04-27T22:50:24.876Z,10.5
2023-04-27T22:55:30.983Z,10.2
2023-04-27T23:00:37.128Z,10.5
2023-04-27T23:05:43.168Z,10.5
2023-04-27T23:10:49.276Z,11.5
2023-04-27T23:15:55.371Z,10.5
2023-04-27T23:21:01.467Z,10.2
2023-04-27T23:26:07.558Z,10.5
2023-04-27T23:31:13.653Z,10.5
2023-04-27T23:36:19.759Z,10.5
2023-04-27T23:41:24.870Z,10.5
2023-04-27T23:51:37.067Z,10.9
2023-04-27T23:56:43.193Z,10.5
